createdAt,value
2023-02-06T00:00:40.885Z,-0.78
2023-02-06T00:03:07.662Z,-0.80
2023-02-06T00:05:34.739Z,-0.82
2023-02-06T00:08:01.615Z,-0.84
2023-02-06T00:10:28.284Z,-0.84
2023-02-06T00:12:55.053Z,-0.86
2023-02-06T00:15:21.941Z,-0.88
2023-02-06T00:17:48.588Z,-0.89
2023-02-06T00:20:15.306Z,-0.94
2023-02-06T00:22:42.163Z,-0.97
2023-02-06T00:25:08.949Z,-1.03
2023-02-06T00:27:35.858Z,-1.07
2023-02-06T00:30:02.737Z,-1.11
2023-02-06T00:32:29.435Z,-1.13
2023-02-06T00:34:56.136Z,-1.13
2023-02-06T00:37:22.811Z,-1.15
2023-02-06T00:39:49.480Z,-1.16
2023-02-06T00:42:16.214Z,-1.17
2023-02-06T00:44:42.889Z,-1.20
2023-02-06T00:47:09.579Z,-1.18
2023-02-06T00:49:36.282Z,-1.21
2023-02-06T00:52:03.099Z,-1.24
2023-02-06T00:54:29.795Z,-1.23
2023-02-06T00:56:56.452Z,-1.23
2023-02-06T00:59:23.538Z,-1.25
2023-02-06T01:01:50.248Z,-1.27
2023-02-06T01:04:16.999Z,-1.28
2023-02-06T01:06:43.678Z,-1.29
2023-02-06T01:09:10.356Z,-1.29
2023-02-06T01:11:37.057Z,-1.29
2023-02-06T01:14:03.762Z,-1.32
2023-02-06T01:16:30.550Z,-1.35
2023-02-06T01:18:57.222Z,-1.35
2023-02-06T01:21:24.873Z,-1.40
2023-02-06T01:23:54.216Z,-1.45
2023-02-06T01:26:24.056Z,-1.52
2023-02-06T01:28:51.062Z,-1.58
2023-02-06T01:31:24.370Z,-1.62
2023-02-06T01:33:51.824Z,-1.63
2023-02-06T01:36:20.001Z,-1.67
2023-02-06T01:38:48.468Z,-1.71
2023-02-06T01:41:17.242Z,-1.74
2023-02-06T01:44:06.810Z,-1.75
2023-02-06T01:46:33.740Z,-1.79
2023-02-06T01:49:01.721Z,-1.81
2023-02-06T01:51:30.461Z,-1.80
2023-02-06T01:54:03.717Z,-1.79
2023-02-06T01:56:36.636Z,-1.79
2023-02-06T01:59:05.270Z,-1.76
2023-02-06T02:01:33.443Z,-1.75
2023-02-06T02:04:10.881Z,-1.75
2023-02-06T02:06:37.649Z,-1.76
2023-02-06T02:09:06.718Z,-1.76
2023-02-06T02:11:35.962Z,-1.78
2023-02-06T02:14:06.162Z,-1.75
2023-02-06T02:16:50.993Z,-1.75
2023-02-06T02:19:46.667Z,-1.74
2023-02-06T02:22:31.927Z,-1.73
2023-02-06T02:25:07.597Z,-1.73
2023-02-06T02:28:06.002Z,-1.73
2023-02-06T02:30:47.974Z,-1.78
2023-02-06T02:33:36.290Z,-1.79
2023-02-06T02:36:15.012Z,-1.79
2023-02-06T02:39:02.196Z,-1.84
2023-02-06T02:41:40.945Z,-1.84
2023-02-06T02:44:27.588Z,-1.81
2023-02-06T02:46:57.762Z,-1.80
2023-02-06T02:49:28.990Z,-1.81
2023-02-06T02:51:56.927Z,-1.83
2023-02-06T02:54:23.407Z,-1.88
2023-02-06T02:56:50.010Z,-1.97
2023-02-06T02:59:29.117Z,-2.05
2023-02-06T03:01:59.321Z,-2.11
2023-02-06T03:04:32.250Z,-2.15
2023-02-06T03:07:20.751Z,-2.14
2023-02-06T03:10:27.233Z,-2.15
2023-02-06T03:13:03.167Z,-2.15
2023-02-06T03:15:54.748Z,-2.15
2023-02-06T03:18:34.857Z,-2.16
2023-02-06T03:21:05.804Z,-2.17
2023-02-06T03:23:37.706Z,-2.15
2023-02-06T03:26:08.060Z,-2.15
2023-02-06T03:28:39.937Z,-2.15
2023-02-06T03:31:11.796Z,-2.14
2023-02-06T03:33:46.771Z,-2.13
2023-02-06T03:36:17.046Z,-2.14
2023-02-06T03:38:52.094Z,-2.16
2023-02-06T03:41:24.157Z,-2.24
2023-02-06T03:43:53.861Z,-2.32
2023-02-06T03:46:21.862Z,-2.37
2023-02-06T03:48:54.176Z,-2.45
2023-02-06T03:51:43.583Z,-2.45
2023-02-06T03:54:13.103Z,-2.47
2023-02-06T03:56:46.980Z,-2.49
2023-02-06T03:59:13.959Z,-2.55
2023-02-06T04:01:45.588Z,-2.57
2023-02-06T04:04:18.266Z,-2.57
2023-02-06T04:06:44.987Z,-2.57
2023-02-06T04:09:11.850Z,-2.55
2023-02-06T04:11:38.642Z,-2.53
2023-02-06T04:14:05.147Z,-2.52
2023-02-06T04:16:31.675Z,-2.50
2023-02-06T04:18:58.361Z,-2.48
2023-02-06T04:21:24.863Z,-2.48
2023-02-06T04:23:51.364Z,-2.43
2023-02-06T04:26:17.853Z,-2.39
2023-02-06T04:28:44.372Z,-2.37
2023-02-06T04:31:11.116Z,-2.36
2023-02-06T04:33:37.839Z,-2.37
2023-02-06T04:36:04.667Z,-2.37
2023-02-06T04:38:31.346Z,-2.40
2023-02-06T04:41:05.382Z,-2.42
2023-02-06T04:43:32.894Z,-2.46
2023-02-06T04:45:59.883Z,-2.48
2023-02-06T04:48:26.694Z,-2.52
2023-02-06T04:50:53.403Z,-2.49
2023-02-06T04:53:20.102Z,-2.48
2023-02-06T04:55:46.829Z,-2.48
2023-02-06T04:58:13.580Z,-2.46
2023-02-06T05:00:40.253Z,-2.41
2023-02-06T05:03:07.112Z,-2.38
2023-02-06T05:05:34.100Z,-2.30
2023-02-06T05:08:00.966Z,-2.23
2023-02-06T05:10:32.639Z,-2.20
2023-02-06T05:12:59.348Z,-2.20
2023-02-06T05:15:26.005Z,-2.20
2023-02-06T05:17:52.662Z,-2.19
2023-02-06T05:20:19.831Z,-2.22
2023-02-06T05:22:46.529Z,-2.28
2023-02-06T05:25:13.257Z,-2.34
2023-02-06T05:27:39.921Z,-2.39
2023-02-06T05:30:06.989Z,-2.43
2023-02-06T05:32:33.827Z,-2.46
2023-02-06T05:35:00.645Z,-2.52
2023-02-06T05:37:27.305Z,-2.54
2023-02-06T05:39:53.945Z,-2.58
2023-02-06T05:42:20.701Z,-2.60
2023-02-06T05:44:47.435Z,-2.61
2023-02-06T05:47:14.116Z,-2.62
2023-02-06T05:49:40.935Z,-2.62
2023-02-06T05:52:07.680Z,-2.61
2023-02-06T05:54:34.375Z,-2.59
2023-02-06T05:57:01.172Z,-2.63
2023-02-06T05:59:27.908Z,-2.69
2023-02-06T06:01:54.792Z,-2.76
2023-02-06T06:04:21.603Z,-2.80
2023-02-06T06:06:48.308Z,-2.81
2023-02-06T06:09:14.974Z,-2.82
2023-02-06T06:11:41.791Z,-2.80
2023-02-06T06:14:08.763Z,-2.81
2023-02-06T06:16:35.458Z,-2.79
2023-02-06T06:19:02.143Z,-2.79
2023-02-06T06:21:29.019Z,-2.77
2023-02-06T06:23:55.859Z,-2.78
2023-02-06T06:26:22.700Z,-2.78
2023-02-06T06:28:49.437Z,-2.80
2023-02-06T06:31:16.258Z,-2.87
2023-02-06T06:33:43.451Z,-2.92
2023-02-06T06:36:14.399Z,-2.94
2023-02-06T06:38:41.671Z,-2.95
2023-02-06T06:41:08.352Z,-2.96
2023-02-06T06:43:38.086Z,-3.00
2023-02-06T06:46:05.299Z,-2.97
2023-02-06T06:48:32.492Z,-2.96
2023-02-06T06:50:59.625Z,-2.94
2023-02-06T06:53:26.352Z,-2.92
2023-02-06T06:55:53.123Z,-2.90
2023-02-06T06:58:20.988Z,-2.89
2023-02-06T07:00:47.783Z,-2.88
2023-02-06T07:03:14.668Z,-2.89
2023-02-06T07:05:41.434Z,-2.93
2023-02-06T07:08:07.946Z,-2.93
2023-02-06T07:10:34.442Z,-2.92
2023-02-06T07:13:00.964Z,-2.89
2023-02-06T07:15:27.525Z,-2.88
2023-02-06T07:17:54.020Z,-2.90
2023-02-06T07:20:20.592Z,-2.90
2023-02-06T07:22:47.525Z,-2.88
2023-02-06T07:25:14.034Z,-2.87
2023-02-06T07:27:40.530Z,-2.86
2023-02-06T07:30:07.758Z,-2.87
2023-02-06T07:32:36.529Z,-2.90
2023-02-06T07:35:09.641Z,-2.96
2023-02-06T07:37:36.274Z,-2.94
2023-02-06T07:40:03.610Z,-2.86
2023-02-06T07:42:30.121Z,-2.79
2023-02-06T07:44:56.614Z,-2.72
2023-02-06T07:47:23.112Z,-2.63
2023-02-06T07:49:49.598Z,-2.52
2023-02-06T07:52:16.149Z,-2.42
2023-02-06T07:54:42.655Z,-2.33
2023-02-06T07:57:09.212Z,-2.24
2023-02-06T07:59:35.730Z,-2.15
2023-02-06T08:02:02.243Z,-2.07
2023-02-06T08:04:34.955Z,-1.99
2023-02-06T08:07:05.706Z,-1.89
2023-02-06T08:09:32.870Z,-1.82
2023-02-06T08:11:59.430Z,-1.76
2023-02-06T08:14:26.800Z,-1.75
2023-02-06T08:16:53.400Z,-1.71
2023-02-06T08:19:20.718Z,-1.64
2023-02-06T08:21:47.224Z,-1.56
2023-02-06T08:24:13.748Z,-1.49
2023-02-06T08:26:40.229Z,-1.42
2023-02-06T08:29:07.518Z,-1.34
2023-02-06T08:31:37.193Z,-1.28
2023-02-06T08:34:05.050Z,-1.25
2023-02-06T08:36:32.718Z,-1.23
2023-02-06T08:39:00.417Z,-1.19
2023-02-06T08:41:30.106Z,-1.14
2023-02-06T08:43:59.048Z,-1.08
2023-02-06T08:46:28.828Z,-1.01
2023-02-06T08:48:56.545Z,-0.96
2023-02-06T08:51:23.683Z,-0.91
2023-02-06T08:53:50.457Z,-0.87
2023-02-06T08:56:16.977Z,-0.84
2023-02-06T08:58:43.480Z,-0.81
2023-02-06T09:01:14.370Z,-0.77
2023-02-06T09:03:41.784Z,-0.72
2023-02-06T09:06:10.534Z,-0.66
2023-02-06T09:08:38.397Z,-0.60
2023-02-06T09:11:13.664Z,-0.53
2023-02-06T09:13:40.376Z,-0.47
2023-02-06T09:16:08.019Z,-0.43
2023-02-06T09:18:35.243Z,-0.37
2023-02-06T09:21:06.024Z,-0.32
2023-02-06T09:23:33.051Z,-0.28
2023-02-06T09:25:59.742Z,-0.23
2023-02-06T09:28:26.515Z,-0.19
2023-02-06T09:30:53.366Z,-0.15
2023-02-06T09:33:21.174Z,-0.09
2023-02-06T09:35:48.269Z,-0.06
2023-02-06T09:38:14.947Z,-0.01
2023-02-06T09:40:41.676Z,0.05
2023-02-06T09:43:13.281Z,0.10
2023-02-06T09:45:40.857Z,0.16
2023-02-06T09:48:19.313Z,0.22
2023-02-06T09:50:55.670Z,0.26
2023-02-06T09:53:51.259Z,0.31
2023-02-06T09:56:32.615Z,0.36
2023-02-06T09:59:23.523Z,0.44
2023-02-06T10:01:57.711Z,0.50
2023-02-06T10:04:47.360Z,0.55
2023-02-06T10:07:22.800Z,0.61
2023-02-06T10:10:00.761Z,0.67
2023-02-06T10:12:35.268Z,0.74
2023-02-06T10:15:22.998Z,0.86
2023-02-06T10:17:59.634Z,0.98
2023-02-06T10:20:33.985Z,1.08
2023-02-06T10:23:20.720Z,1.19
2023-02-06T11:17:24.339Z,2.46
2023-02-06T11:19:53.366Z,2.45
2023-02-06T11:22:29.213Z,2.48
2023-02-06T11:25:07.725Z,2.49
2023-02-06T11:27:36.225Z,2.53
2023-02-06T11:30:21.352Z,2.58
2023-02-06T11:33:02.739Z,2.62
2023-02-06T11:35:37.359Z,2.69
2023-02-06T11:38:19.898Z,2.79
2023-02-06T11:40:56.267Z,2.90
2023-02-06T11:43:56.150Z,3.03
2023-02-06T11:46:32.584Z,3.11
2023-02-06T11:49:06.674Z,3.20
2023-02-06T11:51:53.894Z,3.30
2023-02-06T11:54:28.879Z,3.36
2023-02-06T11:56:58.943Z,3.43
2023-02-06T11:59:27.321Z,3.49
2023-02-06T12:01:54.104Z,3.54
2023-02-06T12:04:26.460Z,3.56
2023-02-06T12:07:01.236Z,3.54
2023-02-06T12:09:28.236Z,3.57
2023-02-06T12:12:06.298Z,3.58
2023-02-06T12:14:57.522Z,3.56
2023-02-06T12:17:32.185Z,3.54
2023-02-06T12:20:05.586Z,3.54
2023-02-06T12:22:39.289Z,3.54
2023-02-06T14:08:37.397Z,3.60
2023-02-06T14:11:08.802Z,3.64
2023-02-06T14:13:54.973Z,3.79
2023-02-06T14:16:59.320Z,3.87
2023-02-06T14:19:43.504Z,3.91
2023-02-06T14:22:23.044Z,3.94
2023-02-06T14:25:09.691Z,3.96
2023-02-06T14:27:59.367Z,3.98
2023-02-06T14:30:36.350Z,3.98
2023-02-06T14:33:18.126Z,3.97
2023-02-06T14:36:02.677Z,3.94
2023-02-06T14:38:52.949Z,3.94
2023-02-06T14:41:19.949Z,3.93
2023-02-06T14:43:50.109Z,3.93
2023-02-06T14:46:19.565Z,3.88
2023-02-06T14:48:52.517Z,3.84
2023-02-06T14:51:28.698Z,3.81
2023-02-06T14:54:04.559Z,3.78
2023-02-06T14:56:37.000Z,3.79
2023-02-06T14:59:12.530Z,3.78
2023-02-06T15:01:41.204Z,3.75
2023-02-06T15:04:16.933Z,3.72
2023-02-06T15:06:52.716Z,3.67
2023-02-06T15:09:25.041Z,3.64
2023-02-06T15:11:54.486Z,3.59
2023-02-06T15:14:25.065Z,3.56
2023-02-06T15:16:52.324Z,3.52
2023-02-06T15:19:22.164Z,3.47
2023-02-06T15:21:52.369Z,3.44
2023-02-06T15:25:03.333Z,3.37
2023-02-06T15:27:36.485Z,3.30
2023-02-06T15:30:18.482Z,3.27
2023-02-06T15:32:49.535Z,3.23
2023-02-06T15:35:22.653Z,3.18
2023-02-06T15:37:50.046Z,3.15
2023-02-06T15:40:30.877Z,3.06
2023-02-06T15:42:59.265Z,3.02
2023-02-06T15:45:36.458Z,2.99
2023-02-06T15:48:28.315Z,2.95
2023-02-06T15:51:17.099Z,2.90
2023-02-06T15:53:48.019Z,2.84
2023-02-06T15:56:26.396Z,2.80
2023-02-06T15:58:58.870Z,2.74
2023-02-06T16:01:27.658Z,2.68
2023-02-06T16:04:01.245Z,2.59
2023-02-06T16:06:28.296Z,2.53
2023-02-06T16:08:57.426Z,2.45
2023-02-06T16:11:54.378Z,2.37
2023-02-06T16:14:30.203Z,2.28
2023-02-06T16:17:16.788Z,2.16
2023-02-06T16:20:33.588Z,2.02
2023-02-06T16:23:29.246Z,1.91
2023-02-06T16:26:09.774Z,1.83
2023-02-06T16:28:47.964Z,1.80
2023-02-06T16:31:15.388Z,1.75
2023-02-06T16:33:47.803Z,1.72
2023-02-06T16:36:16.710Z,1.69
2023-02-06T16:38:48.415Z,1.70
2023-02-06T16:41:38.119Z,1.69
2023-02-06T16:44:10.190Z,1.70
2023-02-06T16:46:37.020Z,1.69
2023-02-06T16:49:10.210Z,1.68
2023-02-06T16:51:39.985Z,1.69
2023-02-06T16:54:08.907Z,1.68
2023-02-06T16:56:38.083Z,1.67
2023-02-06T16:59:04.780Z,1.62
2023-02-06T17:01:32.308Z,1.61
2023-02-06T17:03:59.223Z,1.58
2023-02-06T17:06:28.736Z,1.52
2023-02-06T17:09:03.356Z,1.44
2023-02-06T17:11:31.167Z,1.41
2023-02-06T17:13:57.876Z,1.39
2023-02-06T17:16:27.962Z,1.34
2023-02-06T17:18:55.113Z,1.33
2023-02-06T17:21:23.773Z,1.33
2023-02-06T17:23:52.072Z,1.33
2023-02-06T17:26:22.290Z,1.31
2023-02-06T17:28:49.549Z,1.29
2023-02-06T17:31:18.421Z,1.22
2023-02-06T17:33:45.401Z,1.18
2023-02-06T17:36:18.917Z,1.14
2023-02-06T17:38:45.635Z,1.07
2023-02-06T17:41:12.281Z,0.99
2023-02-06T17:43:39.025Z,0.95
2023-02-06T17:46:06.309Z,0.88
2023-02-06T17:48:36.669Z,0.83
2023-02-06T17:51:05.438Z,0.70
2023-02-06T17:53:32.165Z,0.64
2023-02-06T17:56:05.291Z,0.56
2023-02-06T17:58:32.372Z,0.48
2023-02-06T18:00:59.046Z,0.39
2023-02-06T18:03:25.847Z,0.33
2023-02-06T18:06:00.229Z,0.31
2023-02-06T18:08:28.618Z,0.29
2023-02-06T18:10:56.057Z,0.27
2023-02-06T18:13:24.301Z,0.23
2023-02-06T18:15:54.017Z,0.21
2023-02-06T18:18:22.423Z,0.20
2023-02-06T18:20:49.611Z,0.23
2023-02-06T18:23:19.036Z,0.24
2023-02-06T18:25:45.757Z,0.23
2023-02-06T18:28:14.739Z,0.18
2023-02-06T18:30:41.817Z,0.15
2023-02-06T18:33:09.181Z,0.16
2023-02-06T18:35:39.800Z,0.14
2023-02-06T18:38:09.606Z,0.09
2023-02-06T18:40:38.104Z,0.04
2023-02-06T18:43:06.382Z,-0.04
2023-02-06T18:45:35.542Z,-0.09
2023-02-06T18:48:04.065Z,-0.11
2023-02-06T18:50:31.622Z,-0.13
2023-02-06T18:52:58.316Z,-0.14
2023-02-06T18:55:25.159Z,-0.18
2023-02-06T18:57:53.896Z,-0.23
2023-02-06T19:00:22.585Z,-0.28
2023-02-06T19:02:50.047Z,-0.32
2023-02-06T19:05:16.905Z,-0.33
2023-02-06T19:07:47.624Z,-0.35
2023-02-06T19:10:16.193Z,-0.37
2023-02-06T19:12:43.539Z,-0.38
2023-02-06T19:15:11.077Z,-0.42
2023-02-06T19:17:38.036Z,-0.43
2023-02-06T19:20:05.224Z,-0.47
2023-02-06T19:22:34.893Z,-0.52
2023-02-06T19:25:01.997Z,-0.55
2023-02-06T19:27:28.677Z,-0.61
2023-02-06T19:29:55.363Z,-0.66
2023-02-06T19:32:22.056Z,-0.68
2023-02-06T19:34:48.875Z,-0.68
2023-02-06T19:37:15.642Z,-0.76
2023-02-06T19:39:44.329Z,-0.86
2023-02-06T19:42:12.755Z,-0.97
2023-02-06T19:44:39.481Z,-1.02
2023-02-06T19:47:06.294Z,-1.08
2023-02-06T19:49:33.062Z,-1.06
2023-02-06T19:52:00.024Z,-1.11
2023-02-06T19:54:26.961Z,-1.12
2023-02-06T19:56:53.714Z,-1.13
2023-02-06T19:59:23.419Z,-1.15
2023-02-06T20:01:53.710Z,-1.17
2023-02-06T20:04:22.891Z,-1.18
2023-02-06T20:06:51.116Z,-1.18
2023-02-06T20:09:20.306Z,-1.20
2023-02-06T20:11:49.033Z,-1.22
2023-02-06T20:14:17.428Z,-1.23
2023-02-06T20:16:45.494Z,-1.26
2023-02-06T20:19:27.993Z,-1.29
2023-02-06T20:21:55.808Z,-1.32
2023-02-06T20:24:25.393Z,-1.31
2023-02-06T20:26:55.978Z,-1.32
2023-02-06T20:29:25.328Z,-1.32
2023-02-06T20:31:53.022Z,-1.35
2023-02-06T20:34:21.721Z,-1.39
2023-02-06T20:36:49.295Z,-1.41
2023-02-06T20:39:16.488Z,-1.44
2023-02-06T20:41:45.288Z,-1.47
2023-02-06T20:44:13.794Z,-1.48
2023-02-06T20:46:41.921Z,-1.50
2023-02-06T20:49:14.745Z,-1.59
2023-02-06T20:51:41.572Z,-1.65
2023-02-06T20:54:08.531Z,-1.74
2023-02-06T20:56:35.220Z,-1.79
2023-02-06T20:59:02.129Z,-1.82
2023-02-06T21:01:30.794Z,-1.81
2023-02-06T21:04:00.355Z,-1.80
2023-02-06T21:06:28.038Z,-1.79
2023-02-06T21:08:59.830Z,-1.78
2023-02-06T21:11:33.128Z,-1.78
2023-02-06T21:14:02.367Z,-1.77
2023-02-06T21:16:31.396Z,-1.82
2023-02-06T21:18:59.152Z,-1.87
2023-02-06T21:21:26.523Z,-1.90
2023-02-06T21:23:55.779Z,-1.90
2023-02-06T21:26:23.772Z,-1.94
2023-02-06T21:28:51.358Z,-1.96
2023-02-06T21:31:21.818Z,-1.98
2023-02-06T21:33:49.899Z,-2.02
2023-02-06T21:36:17.225Z,-2.06
2023-02-06T21:38:44.453Z,-2.08
2023-02-06T21:41:15.065Z,-2.09
2023-02-06T21:43:42.162Z,-2.13
2023-02-06T21:46:10.296Z,-2.13
2023-02-06T21:48:37.804Z,-2.15
2023-02-06T21:51:15.542Z,-2.18
2023-02-06T21:53:43.477Z,-2.25
2023-02-06T21:56:15.687Z,-2.34
2023-02-06T21:58:42.342Z,-2.38
2023-02-06T22:01:14.668Z,-2.43
2023-02-06T22:03:41.392Z,-2.51
2023-02-06T22:06:12.339Z,-2.54
2023-02-06T22:08:45.377Z,-2.56
2023-02-06T22:11:27.192Z,-2.56
2023-02-06T22:13:58.357Z,-2.56
2023-02-06T22:16:26.376Z,-2.58
2023-02-06T22:18:53.716Z,-2.57
2023-02-06T22:21:23.452Z,-2.60
2023-02-06T22:23:51.232Z,-2.64
2023-02-06T22:26:20.436Z,-2.66
2023-02-06T22:28:47.633Z,-2.68
2023-02-06T22:31:18.980Z,-2.72
2023-02-06T22:33:46.454Z,-2.73
2023-02-06T22:36:17.248Z,-2.72
2023-02-06T22:38:45.926Z,-2.72
2023-02-06T22:41:16.018Z,-2.70
2023-02-06T22:43:43.418Z,-2.75
2023-02-06T22:46:18.294Z,-2.78
2023-02-06T22:48:45.028Z,-2.84
2023-02-06T22:51:11.752Z,-2.92
2023-02-06T22:53:38.873Z,-2.98
2023-02-06T22:56:26.838Z,-3.04
2023-02-06T22:58:54.948Z,-3.08
2023-02-06T23:01:24.596Z,-3.09
2023-02-06T23:03:52.816Z,-3.10
2023-02-06T23:06:20.050Z,-3.14
2023-02-06T23:24:01.755Z,-3.27
2023-02-06T23:26:29.383Z,-3.31
2023-02-06T23:29:01.813Z,-3.31
2023-02-06T23:31:29.191Z,-3.31
2023-02-06T23:33:56.068Z,-3.32
2023-02-06T23:36:24.369Z,-3.34
2023-02-06T23:38:51.965Z,-3.35
2023-02-06T23:41:21.760Z,-3.38
2023-02-06T23:43:53.392Z,-3.37
2023-02-06T23:46:20.402Z,-3.40
2023-02-06T23:48:47.794Z,-3.44
2023-02-06T23:51:15.422Z,-3.48
2023-02-06T23:53:42.138Z,-3.48
2023-02-06T23:56:27.274Z,-3.48
2023-02-06T23:58:55.595Z,-3.50
